Time;durP1;ratioP1;P1;durP2;ratioP2;P2;SDS_P1;SDS_P2;PMS_P1;PMS_P2;Temp;Humidity;BMP_temperature;BMP_pressure;BME280_temperature;BME280_humidity;BME280_pressure;Samples;Min_cycle;Max_cycle;Signal;HPM_P1;HPM_P2
2020/12/12 00:00:00;;;;;;;50.75;23.40;;;179.20;2252.80;;;;;;5037081;28;20041;-75
2020/12/12 00:02:31;;;;;;;50.03;22.58;;;154.50;2252.80;;;;;;5037025;28;20412;-76
2020/12/12 00:04:59;;;;;;;47.45;22.08;;;154.50;2252.80;;;;;;5037217;28;20192;-77
2020/12/12 00:07:25;;;;;;;45.40;21.10;;;179.20;2252.80;;;;;;5037109;28;20054;-77
2020/12/12 00:09:52;;;;;;;47.03;20.65;;;154.50;2252.80;;;;;;5036907;28;20032;-76
2020/12/12 00:12:18;;;;;;;42.88;21.77;;;154.50;2252.80;;;;;;5036689;28;20026;-77
2020/12/12 00:14:44;;;;;;;46.65;23.48;;;154.40;2252.80;;;;;;5036624;28;20045;-77
2020/12/12 00:17:09;;;;;;;49.33;22.63;;;154.50;2252.80;;;;;;5034955;28;20110;-77
2020/12/12 00:19:35;;;;;;;43.08;22.23;;;154.50;2252.80;;;;;;5037208;28;20033;-76
2020/12/12 00:22:01;;;;;;;44.17;21.80;;;179.20;2252.80;;;;;;5037839;28;20084;-78
2020/12/12 00:24:27;;;;;;;50.70;22.95;;;154.50;2252.80;;;;;;5039490;28;20125;-77
2020/12/12 00:26:56;;;;;;;47.40;22.70;;;179.20;2252.80;;;;;;5036344;28;20025;-77
2020/12/12 00:29:21;;;;;;;37.00;19.60;;;154.50;2252.80;;;;;;5036781;28;20030;-78
2020/12/12 00:31:57;;;;;;;45.03;20.45;;;154.50;2252.80;;;;;;5036498;28;20120;-76
2020/12/12 00:34:26;;;;;;;44.47;19.33;;;179.20;2252.80;;;;;;5036383;28;20109;-77
2020/12/12 00:36:53;;;;;;;37.47;19.23;;;179.20;2252.80;;;;;;5035391;28;20075;-76
2020/12/12 00:39:20;;;;;;;37.38;19.42;;;154.50;2252.80;;;;;;5036378;28;20041;-76
2020/12/12 00:41:46;;;;;;;41.67;19.02;;;154.50;2252.80;;;;;;5035214;28;20057;-76
2020/12/12 00:44:13;;;;;;;37.83;18.50;;;154.50;2252.80;;;;;;5036130;28;20082;-75
2020/12/12 00:46:39;;;;;;;33.05;17.17;;;154.50;2252.80;;;;;;5036280;28;20421;-77
2020/12/12 00:49:10;;;;;;;36.10;19.90;;;154.50;2252.80;;;;;;5036564;28;20068;-77
2020/12/12 00:51:35;;;;;;;40.90;19.73;;;154.50;2252.80;;;;;;5036156;28;20319;-76
2020/12/12 00:54:07;;;;;;;42.53;20.30;;;154.50;2252.80;;;;;;5036396;28;20029;-77
2020/12/12 00:56:32;;;;;;;35.30;19.02;;;179.20;2252.80;;;;;;5036376;28;20029;-76
2020/12/12 00:58:58;;;;;;;45.63;19.92;;;154.50;2252.80;;;;;;5035996;28;20323;-78
2020/12/12 01:01:24;;;;;;;44.38;21.60;;;154.50;2252.80;;;;;;5036357;28;20037;-77
2020/12/12 01:03:50;;;;;;;46.67;20.58;;;154.50;2252.80;;;;;;5036242;28;20099;-76
2020/12/12 01:06:17;;;;;;;41.83;19.65;;;154.40;2252.80;;;;;;5036315;28;20022;-76
2020/12/12 01:08:44;;;;;;;40.58;20.63;;;154.40;2252.80;;;;;;5036129;28;20021;-77
2020/12/12 01:11:11;;;;;;;38.60;19.33;;;154.50;2252.80;;;;;;5034972;28;20025;-77
2020/12/12 01:13:37;;;;;;;38.58;20.83;;;154.50;2252.80;;;;;;5036221;28;20050;-77
2020/12/12 01:16:14;;;;;;;41.50;20.05;;;154.50;2252.80;;;;;;5036131;28;20095;-77
2020/12/12 01:18:41;;;;;;;40.28;19.90;;;154.50;2252.80;;;;;;5035990;28;20415;-76
2020/12/12 01:21:07;;;;;;;50.80;21.90;;;154.50;2252.80;;;;;;5036299;28;20033;-76
2020/12/12 01:23:33;;;;;;;42.47;21.13;;;154.50;2252.80;;;;;;5034294;28;20045;-77
2020/12/12 01:25:59;;;;;;;52.72;22.52;;;179.20;2252.80;;;;;;5036211;28;20022;-77
2020/12/12 01:28:25;;;;;;;40.42;20.67;;;179.20;2252.80;;;;;;5037665;28;20026;-76
2020/12/12 01:30:52;;;;;;;42.67;20.20;;;179.20;2252.80;;;;;;5039745;28;20084;-76
2020/12/12 01:33:18;;;;;;;40.33;20.25;;;179.20;2252.80;;;;;;5038695;28;20091;-76
2020/12/12 01:35:44;;;;;;;39.10;20.15;;;179.20;2252.80;;;;;;5039662;28;20034;-76
2020/12/12 01:38:10;;;;;;;35.10;18.23;;;154.50;2252.80;;;;;;5039652;28;20021;-77
2020/12/12 01:40:37;;;;;;;37.75;20.00;;;154.50;2252.80;;;;;;5039534;28;20035;-76
2020/12/12 01:43:03;;;;;;;44.03;18.30;;;179.20;2252.80;;;;;;5038299;28;20475;-78
2020/12/12 01:45:29;;;;;;;36.42;19.00;;;179.20;2252.80;;;;;;5039430;28;20125;-76
2020/12/12 01:47:55;;;;;;;41.50;18.40;;;179.20;2252.80;;;;;;5039503;28;20022;-76
2020/12/12 01:50:21;;;;;;;41.50;19.65;;;179.30;2252.80;;;;;;5039315;28;20403;-76
2020/12/12 01:52:50;;;;;;;40.08;18.83;;;179.20;2252.80;;;;;;5039463;28;20021;-76
2020/12/12 01:55:19;;;;;;;41.38;19.02;;;179.20;2252.80;;;;;;5038419;28;20037;-80
2020/12/12 01:57:48;;;;;;;41.05;19.67;;;179.20;2252.80;;;;;;5038164;28;20025;-77
2020/12/12 02:00:14;;;;;;;44.67;19.83;;;179.20;2252.80;;;;;;5039256;28;20164;-77
2020/12/12 02:02:45;;;;;;;49.05;22.40;;;179.30;2252.80;;;;;;5039169;28;20140;-76
2020/12/12 02:05:11;;;;;;;;;;;179.30;2252.80;;;;;;5039570;28;20419;-78
2020/12/12 02:07:37;;;;;;;47.40;20.95;;;179.20;2252.80;;;;;;5037934;28;19905;-78
2020/12/12 02:10:03;;;;;;;43.28;20.58;;;179.30;2252.80;;;;;;5038980;28;20024;-78
2020/12/12 02:12:29;;;;;;;42.47;20.05;;;179.30;2252.80;;;;;;5037784;28;20346;-76
2020/12/12 02:14:55;;;;;;;45.47;20.92;;;179.30;2252.80;;;;;;5039069;28;20033;-76
2020/12/12 02:17:21;;;;;;;52.30;21.98;;;179.30;2252.80;;;;;;5038787;28;20029;-76
2020/12/12 02:19:46;;;;;;;42.22;22.23;;;179.30;2252.80;;;;;;5038794;28;20037;-76
2020/12/12 02:22:12;;;;;;;47.55;21.60;;;179.20;2252.80;;;;;;5038899;28;20034;-76
2020/12/12 02:24:38;;;;;;;42.88;19.58;;;179.30;2252.80;;;;;;5038554;28;20485;-77
2020/12/12 02:27:06;;;;;;;41.20;19.45;;;179.30;2252.80;;;;;;5038671;28;20021;-77
2020/12/12 02:30:06;;;;;;;43.70;20.70;;;179.30;2252.80;;;;;;5038795;28;20022;-77
2020/12/12 02:32:25;;;;;;;49.47;22.20;;;179.20;2252.80;;;;;;5038702;28;20032;-77
2020/12/12 02:34:50;;;;;;;39.38;18.50;;;179.20;2252.80;;;;;;5039226;28;20037;-76
2020/12/12 02:37:16;;;;;;;39.28;19.27;;;179.30;2252.80;;;;;;5038602;28;20469;-76
2020/12/12 02:39:42;;;;;;;42.40;18.23;;;179.20;2252.80;;;;;;5037690;28;20033;-76
2020/12/12 02:42:07;;;;;;;39.58;17.85;;;179.30;2252.80;;;;;;5037401;28;20155;-78
2020/12/12 02:44:33;;;;;;;39.95;17.42;;;179.30;2252.80;;;;;;5038036;28;20400;-76
2020/12/12 02:46:59;;;;;;;41.58;19.75;;;179.30;2252.80;;;;;;5037169;28;20099;-79
2020/12/12 02:49:24;;;;;;;38.45;19.63;;;179.20;2252.80;;;;;;5038422;28;20068;-76
2020/12/12 02:51:50;;;;;;;39.30;17.38;;;179.30;2252.80;;;;;;5038523;28;20439;-77
2020/12/12 02:54:16;;;;;;;36.88;18.95;;;179.20;2252.80;;;;;;5038260;28;20021;-77
2020/12/12 02:56:42;;;;;;;38.80;18.02;;;179.30;2252.80;;;;;;5037975;28;20030;-77
2020/12/12 02:59:07;;;;;;;29.35;17.02;;;179.20;2252.80;;;;;;5037953;28;20060;-76
2020/12/12 03:01:33;;;;;;;32.97;16.00;;;179.30;2252.80;;;;;;5038533;28;20031;-77
2020/12/12 03:03:59;;;;;;;36.22;18.15;;;179.20;2252.80;;;;;;5037942;28;20061;-76
2020/12/12 03:06:24;;;;;;;35.60;17.70;;;179.30;2252.80;;;;;;5038068;28;20036;-77
2020/12/12 03:08:50;;;;;;;47.65;18.73;;;179.30;2252.80;;;;;;5037845;28;20026;-76
2020/12/12 03:11:16;;;;;;;45.08;19.00;;;179.30;2252.80;;;;;;5037659;28;20415;-76
2020/12/12 03:13:41;;;;;;;40.15;18.05;;;179.20;2252.80;;;;;;5037974;28;20022;-77
2020/12/12 03:16:07;;;;;;;34.55;16.15;;;179.20;2252.80;;;;;;5037696;28;20049;-76
2020/12/12 03:18:33;;;;;;;35.17;16.83;;;179.20;2252.80;;;;;;5038042;28;20033;-76
2020/12/12 03:20:58;;;;;;;33.28;15.13;;;179.30;2252.80;;;;;;5036522;28;20115;-77
2020/12/12 03:23:24;;;;;;;30.00;13.77;;;179.20;2252.80;;;;;;5037436;28;20043;-76
2020/12/12 03:25:50;;;;;;;36.28;16.90;;;179.20;2252.80;;;;;;5037511;28;20030;-77
2020/12/12 03:28:15;;;;;;;34.83;17.42;;;179.20;2252.80;;;;;;5037058;28;20116;-76
2020/12/12 03:30:41;;;;;;;36.55;16.83;;;179.20;2252.80;;;;;;5037636;28;20022;-76
2020/12/12 03:33:07;;;;;;;26.08;14.13;;;179.20;2252.80;;;;;;5037410;28;20021;-77
2020/12/12 03:35:33;;;;;;;31.52;16.27;;;179.30;2252.80;;;;;;5037358;28;20029;-78
2020/12/12 03:38:02;;;;;;;32.28;14.65;;;179.20;2252.80;;;;;;5037304;28;20033;-77
2020/12/12 03:40:27;;;;;;;34.13;14.85;;;179.30;2252.80;;;;;;5037146;28;20025;-76
2020/12/12 03:42:54;;;;;;;32.03;14.02;;;179.30;2252.80;;;;;;5037197;28;20036;-76
2020/12/12 03:45:20;;;;;;;32.05;15.02;;;179.30;2252.80;;;;;;5037183;28;20052;-76
2020/12/12 03:47:47;;;;;;;26.45;14.65;;;179.30;2252.80;;;;;;5036266;28;20041;-76
2020/12/12 03:50:14;;;;;;;36.47;16.20;;;179.30;2252.80;;;;;;5037034;28;20029;-76
2020/12/12 03:52:40;;;;;;;35.00;15.85;;;179.30;2252.80;;;;;;5035497;28;20028;-76
2020/12/12 03:55:06;;;;;;;30.90;15.48;;;179.30;2252.80;;;;;;5036871;28;20061;-76
2020/12/12 03:57:32;;;;;;;32.60;14.18;;;179.30;2252.80;;;;;;5037044;28;20033;-76
2020/12/12 03:59:58;;;;;;;36.78;16.30;;;179.30;2252.80;;;;;;5036919;28;20029;-76
2020/12/12 04:02:23;;;;;;;35.53;17.00;;;179.40;2252.80;;;;;;5037006;28;20029;-76
2020/12/12 04:04:49;;;;;;;30.17;15.45;;;179.30;2252.80;;;;;;5036865;28;20430;-77
2020/12/12 04:07:15;;;;;;;32.22;13.55;;;179.30;2252.80;;;;;;5036836;28;20164;-77
2020/12/12 04:09:40;;;;;;;37.15;16.52;;;179.30;2252.80;;;;;;5036976;28;20108;-77
2020/12/12 04:12:06;;;;;;;33.10;15.02;;;179.30;2252.80;;;;;;5036655;28;20028;-77
2020/12/12 04:14:32;;;;;;;33.22;15.23;;;179.30;2252.80;;;;;;5036777;28;20116;-78
2020/12/12 04:16:58;;;;;;;40.25;15.02;;;179.30;2252.80;;;;;;5036835;28;20029;-77
2020/12/12 04:19:23;;;;;;;37.53;16.58;;;179.40;2252.80;;;;;;5036567;28;20080;-78
2020/12/12 04:21:49;;;;;;;33.67;15.52;;;179.30;2252.80;;;;;;5036686;28;20029;-77
2020/12/12 04:24:16;;;;;;;35.22;16.38;;;179.40;2252.80;;;;;;5036307;28;20049;-78
2020/12/12 04:26:42;;;;;;;39.70;18.35;;;179.50;2252.80;;;;;;5036540;28;20049;-77
2020/12/12 04:29:07;;;;;;;38.38;18.50;;;179.50;2252.80;;;;;;5036591;28;20064;-77
2020/12/12 04:31:33;;;;;;;42.65;19.15;;;179.40;2252.80;;;;;;5036531;28;20072;-77
2020/12/12 04:34:00;;;;;;;40.25;19.13;;;179.40;2252.80;;;;;;5035737;28;20021;-77
2020/12/12 04:36:26;;;;;;;47.22;18.65;;;179.40;2252.80;;;;;;5035570;28;20319;-78
2020/12/12 04:38:51;;;;;;;42.75;19.05;;;179.40;2252.80;;;;;;5036551;28;20030;-76
2020/12/12 04:41:18;;;;;;;42.83;19.20;;;179.40;2252.80;;;;;;5035718;28;20037;-77
2020/12/12 04:43:44;;;;;;;47.80;19.63;;;179.50;2252.80;;;;;;5036345;28;20029;-76
2020/12/12 04:46:12;;;;;;;43.63;18.25;;;179.40;2252.80;;;;;;5036425;28;20422;-78
2020/12/12 04:48:39;;;;;;;52.85;20.25;;;179.40;2252.80;;;;;;5036406;28;20025;-77
2020/12/12 04:51:05;;;;;;;45.70;20.30;;;179.40;2252.80;;;;;;5036438;28;20419;-77
2020/12/12 04:53:31;;;;;;;53.95;20.08;;;179.40;2252.80;;;;;;5036415;28;20053;-77
2020/12/12 04:55:57;;;;;;;49.88;21.42;;;179.40;2252.80;;;;;;5036218;28;20063;-77
2020/12/12 04:58:27;;;;;;;46.03;21.20;;;179.40;2252.80;;;;;;5035192;28;20061;-77
2020/12/12 05:00:54;;;;;;;47.07;20.83;;;179.40;2252.80;;;;;;5035716;28;20030;-77
2020/12/12 05:03:22;;;;;;;53.15;20.23;;;179.50;2252.80;;;;;;5038043;28;20261;-77
2020/12/12 05:05:48;;;;;;;49.15;21.13;;;179.50;2252.80;;;;;;5040157;28;20053;-78
2020/12/12 05:08:14;;;;;;;56.50;21.58;;;179.50;2252.80;;;;;;5040098;28;20088;-78
2020/12/12 05:10:43;;;;;;;50.35;22.92;;;179.50;2252.80;;;;;;5040170;28;20028;-77
2020/12/12 05:13:28;;;;;;;54.05;21.48;;;179.50;2252.80;;;;;;5038977;28;20021;-77
2020/12/12 05:15:55;;;;;;;62.72;22.00;;;179.60;2252.80;;;;;;5039010;28;20036;-77
2020/12/12 05:18:21;;;;;;;52.75;20.98;;;179.50;2252.80;;;;;;5039868;28;20323;-78
2020/12/12 05:20:47;;;;;;;54.00;22.08;;;179.60;2252.80;;;;;;5039869;28;20036;-77
2020/12/12 05:23:32;;;;;;;57.17;23.75;;;179.50;2252.80;;;;;;5038979;28;20112;-78
2020/12/12 05:25:57;;;;;;;58.20;22.60;;;179.50;2252.80;;;;;;5039979;28;20045;-77
2020/12/12 05:28:24;;;;;;;59.67;22.90;;;179.60;2252.80;;;;;;5038769;28;20048;-78
2020/12/12 05:30:52;;;;;;;50.28;22.85;;;179.50;2252.80;;;;;;5039939;28;20033;-78
2020/12/12 05:33:21;;;;;;;55.33;22.38;;;179.50;2252.80;;;;;;5039610;28;20053;-78
2020/12/12 05:35:47;;;;;;;56.97;23.65;;;179.60;2252.80;;;;;;5039765;28;20045;-78
2020/12/12 05:38:13;;;;;;;55.13;24.05;;;179.60;2252.80;;;;;;5039416;28;20045;-77
2020/12/12 05:40:41;;;;;;;55.50;24.00;;;179.50;2252.80;;;;;;5039482;28;20031;-77
2020/12/12 05:43:09;;;;;;;59.83;25.63;;;179.60;2252.80;;;;;;5039725;28;20070;-77
2020/12/12 05:45:36;;;;;;;57.20;23.55;;;179.60;2252.80;;;;;;5039376;28;20442;-77
2020/12/12 05:48:06;;;;;;;56.55;24.27;;;179.60;2252.80;;;;;;5039451;28;20414;-77
2020/12/12 05:50:32;;;;;;;55.80;22.15;;;179.60;2252.80;;;;;;5039578;28;20029;-77
2020/12/12 05:52:58;;;;;;;62.25;25.20;;;179.60;2252.80;;;;;;5039830;28;20032;-76
2020/12/12 05:55:28;;;;;;;59.15;24.35;;;179.60;2252.80;;;;;;5039526;28;20061;-77
2020/12/12 05:57:54;;;;;;;64.22;26.13;;;179.60;2252.80;;;;;;5039304;28;20406;-77
2020/12/12 06:00:24;;;;;;;57.25;23.80;;;179.50;2252.80;;;;;;5039163;28;20037;-77
2020/12/12 06:02:53;;;;;;;55.83;24.70;;;179.60;2252.80;;;;;;5039341;28;20358;-75
2020/12/12 06:05:27;;;;;;;58.65;23.83;;;179.60;2252.80;;;;;;5039462;28;20083;-76
2020/12/12 06:07:56;;;;;;;62.90;25.83;;;179.70;2252.80;;;;;;5039872;28;20021;-75
2020/12/12 06:10:26;;;;;;;57.42;26.00;;;179.70;2252.80;;;;;;5039345;28;20075;-77
2020/12/12 06:12:57;;;;;;;57.58;25.02;;;179.70;2252.80;;;;;;5039026;28;20033;-77
2020/12/12 06:15:40;;;;;;;52.97;23.77;;;179.60;2252.80;;;;;;5037743;28;20033;-77
2020/12/12 06:18:26;;;;;;;49.92;23.95;;;179.60;2252.80;;;;;;5038691;28;20029;-77
2020/12/12 06:20:53;;;;;;;48.20;23.15;;;179.70;2252.80;;;;;;5038986;28;20034;-77
2020/12/12 06:23:20;;;;;;;53.60;23.67;;;179.70;2252.80;;;;;;5038731;28;20026;-77
2020/12/12 06:25:46;;;;;;;52.10;24.35;;;179.70;2252.80;;;;;;5038767;28;20069;-77
2020/12/12 06:28:22;;;;;;;44.58;21.77;;;179.70;2252.80;;;;;;5038525;28;20045;-77
2020/12/12 06:30:49;;;;;;;54.22;22.15;;;179.70;2252.80;;;;;;5038637;28;20096;-77
2020/12/12 06:33:15;;;;;;;45.25;21.00;;;179.60;2252.80;;;;;;5038549;28;20021;-77
2020/12/12 06:35:41;;;;;;;45.15;22.52;;;179.70;2252.80;;;;;;5038525;28;20025;-77
2020/12/12 06:38:25;;;;;;;45.42;21.88;;;179.80;2252.80;;;;;;5038656;28;20021;-78
2020/12/12 06:40:53;;;;;;;46.55;24.63;;;179.70;2252.80;;;;;;5038350;28;20026;-77
2020/12/12 06:43:29;;;;;;;55.13;26.02;;;179.70;2252.80;;;;;;5038157;28;20530;-77
2020/12/12 06:45:56;;;;;;;59.13;29.50;;;179.70;2252.80;;;;;;5037299;28;20296;-76
2020/12/12 06:48:23;;;;;;;63.50;34.42;;;179.70;2252.80;;;;;;5038192;28;20354;-77
2020/12/12 06:50:49;;;;;;;83.47;48.63;;;179.70;2252.80;;;;;;5038022;28;20120;-76
2020/12/12 06:53:19;;;;;;;68.88;39.55;;;179.70;2252.80;;;;;;5041172;28;20038;-77
2020/12/12 06:55:45;;;;;;;67.25;39.50;;;179.80;2252.80;;;;;;5037293;28;20476;-77
2020/12/12 06:58:23;;;;;;;61.47;37.78;;;179.80;2252.80;;;;;;5038144;28;20115;-76
2020/12/12 07:00:50;;;;;;;49.33;29.67;;;179.80;2252.80;;;;;;5038317;28;20030;-77
2020/12/12 07:03:21;;;;;;;39.00;23.52;;;179.70;2252.80;;;;;;5037029;28;20022;-77
2020/12/12 07:05:47;;;;;;;37.55;22.33;;;179.80;2252.80;;;;;;5037862;28;20025;-78
2020/12/12 07:08:13;;;;;;;39.75;21.17;;;179.80;2252.80;;;;;;5038015;28;20025;-75
2020/12/12 07:10:42;;;;;;;43.70;27.65;;;179.80;2252.80;;;;;;5037916;28;20021;-77
2020/12/12 07:13:09;;;;;;;52.03;29.05;;;179.70;2252.80;;;;;;5037545;28;20401;-78
2020/12/12 07:15:37;;;;;;;57.47;35.42;;;179.70;2252.80;;;;;;5036824;28;20037;-77
2020/12/12 07:18:08;;;;;;;54.80;32.90;;;179.80;2252.80;;;;;;5036622;28;20364;-78
2020/12/12 07:20:45;;;;;;;51.75;27.98;;;179.80;2252.80;;;;;;5037486;28;20026;-78
2020/12/12 07:23:11;;;;;;;57.72;30.63;;;179.90;2252.80;;;;;;5036347;28;20104;-77
2020/12/12 07:25:37;;;;;;;63.47;37.25;;;179.90;2252.80;;;;;;5036831;28;20050;-77
2020/12/12 07:28:04;;;;;;;74.25;38.88;;;179.90;2252.80;;;;;;5036279;28;20021;-77
2020/12/12 07:30:30;;;;;;;86.05;44.03;;;179.90;2252.80;;;;;;5037545;28;20087;-77
2020/12/12 07:32:55;;;;;;;68.40;35.70;;;179.90;2252.80;;;;;;5036995;28;20419;-77
2020/12/12 07:35:21;;;;;;;65.45;35.83;;;179.90;2252.80;;;;;;5037465;28;20412;-78
2020/12/12 07:37:47;;;;;;;71.07;35.28;;;179.90;2252.80;;;;;;5037324;28;20021;-77
2020/12/12 07:40:13;;;;;;;72.38;36.55;;;180.00;2252.80;;;;;;5036585;28;20025;-78
2020/12/12 07:42:39;;;;;;;74.50;38.28;;;180.00;2252.80;;;;;;5037258;28;20029;-77
2020/12/12 07:47:33;;;;;;;100.72;50.05;;;180.00;2252.80;;;;;;5037214;28;20434;-77
2020/12/12 07:50:04;;;;;;;83.75;38.42;;;180.00;2252.80;;;;;;5036530;28;20026;-77
2020/12/12 07:52:31;;;;;;;88.05;41.85;;;180.00;2252.80;;;;;;5037027;28;20419;-77
2020/12/12 07:55:08;;;;;;;77.30;39.40;;;180.00;2252.80;;;;;;5036722;28;20104;-78
2020/12/12 07:57:37;;;;;;;63.08;36.22;;;180.00;2252.80;;;;;;5036963;28;20048;-77
2020/12/12 08:00:08;;;;;;;63.67;35.78;;;180.10;2252.80;;;;;;5036399;28;20148;-77
2020/12/12 08:02:34;;;;;;;66.70;36.55;;;180.10;2252.80;;;;;;5036482;28;20029;-78
2020/12/12 08:05:01;;;;;;;70.93;40.83;;;180.10;2252.80;;;;;;5037125;28;20034;-80
2020/12/12 08:07:33;;;;;;;77.47;45.17;;;180.10;2252.80;;;;;;5037375;28;20021;-79
2020/12/12 08:10:00;;;;;;;70.13;43.58;;;204.80;2252.80;;;;;;5037231;28;20469;-79
2020/12/12 08:12:34;;;;;;;73.47;42.10;;;180.10;2252.80;;;;;;5036182;28;20029;-81
2020/12/12 08:15:14;;;;;;;75.53;46.28;;;180.10;2252.80;;;;;;5036092;28;20465;-80
2020/12/12 08:17:40;;;;;;;63.30;34.38;;;204.80;2252.80;;;;;;5037147;28;20319;-81
2020/12/12 08:20:11;;;;;;;55.03;29.85;;;204.80;2252.80;;;;;;5037087;28;20037;-78
2020/12/12 08:22:37;;;;;;;55.25;29.88;;;204.80;2252.80;;;;;;5068882;28;20038;-79
2020/12/12 08:25:06;;;;;;;61.58;31.13;;;204.80;2252.80;;;;;;5035663;28;20038;-78
2020/12/12 08:28:11;;;;;;;58.88;32.42;;;204.80;2252.80;;;;;;5036554;28;20048;-78
2020/12/12 08:30:37;;;;;;;62.90;32.53;;;204.80;2252.80;;;;;;5035768;28;20026;-80
2020/12/12 08:33:12;;;;;;;63.33;34.20;;;204.80;2252.80;;;;;;5036661;28;20030;-83
2020/12/12 08:35:38;;;;;;;61.53;30.88;;;204.90;2252.80;;;;;;5036190;28;20045;-80
2020/12/12 08:38:11;;;;;;;56.40;27.65;;;204.90;2252.80;;;;;;5035558;28;20030;-80
2020/12/12 08:40:49;;;;;;;68.95;33.67;;;204.90;2252.80;;;;;;5036815;28;20033;-79
2020/12/12 08:43:36;;;;;;;66.20;30.75;;;204.90;2252.80;;;;;;5037197;28;20030;-79
2020/12/12 08:46:03;;;;;;;70.95;31.95;;;205.00;2252.80;;;;;;5036777;28;20029;-80
2020/12/12 08:48:33;;;;;;;84.85;40.13;;;204.90;2252.80;;;;;;5035952;28;20327;-80
2020/12/12 08:51:01;;;;;;;84.03;41.80;;;205.00;2252.80;;;;;;5037142;28;20217;-78
2020/12/12 08:53:26;;;;;;;101.55;52.83;;;205.00;2252.80;;;;;;5036495;28;20033;-79
2020/12/12 08:56:07;;;;;;;91.75;45.08;;;205.00;2252.80;;;;;;5035911;28;20687;-79
2020/12/12 08:58:35;;;;;;;90.35;46.22;;;205.00;2252.80;;;;;;5036351;28;20025;-78
2020/12/12 09:01:17;;;;;;;94.15;48.80;;;205.10;2252.80;;;;;;5034889;28;20033;-77
2020/12/12 09:03:56;;;;;;;84.93;41.80;;;205.00;2252.80;;;;;;5039355;28;20056;-78
2020/12/12 09:06:24;;;;;;;97.43;44.83;;;205.00;2252.80;;;;;;5036860;28;20026;-79
2020/12/12 09:09:13;;;;;;;84.43;37.67;;;205.00;2252.80;;;;;;5036412;28;20049;-77
2020/12/12 09:11:41;;;;;;;86.93;38.65;;;205.10;2252.80;;;;;;5036637;28;20317;-78
2020/12/12 09:14:07;;;;;;;98.13;42.28;;;205.10;2252.80;;;;;;5035225;28;20037;-76
2020/12/12 09:16:33;;;;;;;92.90;39.92;;;205.10;2252.80;;;;;;5036088;28;20040;-79
2020/12/12 09:18:59;;;;;;;94.15;38.53;;;205.10;2252.80;;;;;;5036238;28;20323;-78
2020/12/12 09:21:25;;;;;;;99.18;41.55;;;205.10;2252.80;;;;;;5031342;28;20104;-79
2020/12/12 09:23:51;;;;;;;82.40;40.65;;;205.10;2252.80;;;;;;5034409;28;20046;-77
2020/12/12 09:26:19;;;;;;;93.47;44.28;;;205.10;2252.80;;;;;;5033633;28;20045;-77
2020/12/12 09:29:01;;;;;;;85.60;41.10;;;205.10;2252.80;;;;;;5034378;28;20049;-79
2020/12/12 09:31:27;;;;;;;83.05;44.33;;;205.10;2252.80;;;;;;5033875;28;20056;-78
2020/12/12 09:33:53;;;;;;;67.68;38.88;;;205.10;2252.80;;;;;;5033746;28;20024;-76
2020/12/12 09:36:20;;;;;;;63.00;34.53;;;205.10;2252.80;;;;;;5035263;28;20025;-77
2020/12/12 09:38:46;;;;;;;63.85;35.47;;;205.10;2252.80;;;;;;5034675;28;20025;-78
2020/12/12 09:41:11;;;;;;;54.70;30.13;;;205.10;2252.80;;;;;;5035809;28;20034;-76
2020/12/12 09:43:37;;;;;;;59.55;33.65;;;205.20;2252.80;;;;;;5035732;28;20033;-78
2020/12/12 09:46:06;;;;;;;55.17;32.10;;;205.20;2252.80;;;;;;5034386;28;20108;-76
2020/12/12 09:48:32;;;;;;;49.22;30.27;;;205.20;2252.80;;;;;;5035692;28;20095;-76
2020/12/12 09:50:57;;;;;;;55.75;30.35;;;205.30;2252.80;;;;;;5037107;28;20029;-79
2020/12/12 09:53:23;;;;;;;44.72;27.30;;;205.30;2252.80;;;;;;5038016;28;20018;-77
2020/12/12 09:55:51;;;;;;;52.38;30.35;;;205.40;2252.80;;;;;;5037489;28;20037;-78
2020/12/12 09:58:17;;;;;;;49.00;27.35;;;205.40;2252.80;;;;;;5038707;28;20072;-77
2020/12/12 10:00:43;;;;;;;40.17;27.65;;;205.40;2252.80;;;;;;5038302;28;20026;-77
2020/12/12 10:03:09;;;;;;;44.17;28.38;;;205.40;2252.80;;;;;;5038904;28;20029;-78
2020/12/12 10:05:35;;;;;;;42.05;27.10;;;205.40;2252.80;;;;;;5039226;28;20021;-77
2020/12/12 10:08:03;;;;;;;35.45;24.25;;;205.40;2252.80;;;;;;5037786;28;20038;-78
2020/12/12 10:10:30;;;;;;;42.63;26.75;;;205.40;2252.80;;;;;;5039095;28;20354;-77
2020/12/12 10:12:56;;;;;;;44.20;28.80;;;205.40;2252.80;;;;;;5038950;28;20025;-77
2020/12/12 10:15:22;;;;;;;63.33;33.80;;;205.40;2252.80;;;;;;5037853;28;20036;-79
2020/12/12 10:17:50;;;;;;;52.60;32.42;;;205.40;2252.80;;;;;;5037050;28;20041;-78
2020/12/12 10:20:17;;;;;;;38.83;26.98;;;205.40;2252.80;;;;;;5037083;28;20029;-77
2020/12/12 10:22:43;;;;;;;47.13;28.58;;;205.40;2252.80;;;;;;5037707;28;20025;-77
2020/12/12 10:25:09;;;;;;;45.60;27.83;;;205.40;2252.80;;;;;;5038535;28;20363;-79
2020/12/12 10:27:36;;;;;;;52.13;28.33;;;205.40;2252.80;;;;;;5038463;28;20025;-77
2020/12/12 10:30:10;;;;;;;54.72;30.30;;;205.40;2252.80;;;;;;5038523;28;20021;-76
2020/12/12 10:32:36;;;;;;;49.78;28.83;;;205.40;2252.80;;;;;;5037367;28;20025;-75
2020/12/12 10:35:04;;;;;;;53.53;30.70;;;205.50;2252.80;;;;;;5038568;28;20335;-77
2020/12/12 10:37:29;;;;;;;54.83;32.47;;;205.50;2252.80;;;;;;5037987;28;20036;-76
2020/12/12 10:42:24;;;;;;;51.65;32.13;;;205.50;2252.80;;;;;;5038135;28;20026;-78
2020/12/12 10:44:50;;;;;;;53.53;34.95;;;205.50;2252.80;;;;;;5037760;28;20461;-78
2020/12/12 10:47:15;;;;;;;45.00;29.02;;;205.50;2252.80;;;;;;5038186;28;20033;-78
2020/12/12 10:49:41;;;;;;;47.75;29.58;;;205.60;2252.80;;;;;;5038696;28;20034;-78
2020/12/12 10:52:07;;;;;;;49.60;33.05;;;205.60;2252.80;;;;;;5038242;28;20029;-79
2020/12/12 10:54:33;;;;;;;65.32;36.78;;;205.60;2252.80;;;;;;5038139;28;20454;-79
2020/12/12 10:57:08;;;;;;;75.32;38.85;;;205.60;2252.80;;;;;;5038608;28;20034;-79
2020/12/12 10:59:34;;;;;;;69.45;33.72;;;205.60;2252.80;;;;;;5038048;28;20029;-80
2020/12/12 11:02:00;;;;;;;68.40;32.35;;;205.60;2252.80;;;;;;5035906;28;20056;-76
2020/12/12 11:04:26;;;;;;;60.63;33.08;;;205.60;2252.80;;;;;;5035160;28;20078;-76
2020/12/12 11:06:52;;;;;;;57.55;32.38;;;205.60;2252.80;;;;;;5036576;28;20332;-76
2020/12/12 11:09:18;;;;;;;44.85;27.98;;;205.60;2252.80;;;;;;5036857;28;20025;-77
2020/12/12 11:11:45;;;;;;;45.03;27.45;;;205.60;2252.80;;;;;;5035698;28;20027;-77
2020/12/12 11:14:10;;;;;;;51.85;31.15;;;205.70;2252.80;;;;;;5036189;28;20017;-78
2020/12/12 11:16:36;;;;;;;50.08;33.33;;;205.70;2252.80;;;;;;5036613;28;20021;-79
2020/12/12 11:19:04;;;;;;;47.13;31.10;;;205.70;2252.80;;;;;;5036779;28;20033;-77
2020/12/12 11:21:30;;;;;;;50.42;32.55;;;205.70;2252.80;;;;;;5030516;28;20323;-77
2020/12/12 11:23:57;;;;;;;35.50;24.58;;;205.70;2252.80;;;;;;5034825;28;20103;-79
2020/12/12 11:26:23;;;;;;;41.67;27.23;;;205.70;2252.80;;;;;;5036284;28;20027;-78
2020/12/12 11:28:49;;;;;;;35.28;23.38;;;205.70;2252.80;;;;;;5035694;28;20407;-77
2020/12/12 11:31:16;;;;;;;42.88;28.95;;;230.40;2252.80;;;;;;5035996;28;20017;-78
2020/12/12 11:33:44;;;;;;;50.38;31.63;;;205.70;2252.80;;;;;;5036248;28;20102;-77
2020/12/12 11:36:43;;;;;;;44.58;32.95;;;205.70;2252.80;;;;;;5035667;28;20103;-78
2020/12/12 11:39:02;;;;;;;54.40;34.88;;;230.40;2252.80;;;;;;5035253;28;20021;-77
2020/12/12 11:46:51;;;;;;;49.00;30.92;;;230.50;2252.80;;;;;;4994154;28;20066;-77
2020/12/12 11:49:18;;;;;;;49.90;35.33;;;230.40;2252.80;;;;;;4994336;28;20117;-77
2020/12/12 11:51:45;;;;;;;50.80;33.40;;;230.40;2252.80;;;;;;4993778;28;20041;-78
2020/12/12 11:54:11;;;;;;;70.35;37.80;;;230.40;2252.80;;;;;;4994686;28;20034;-78
2020/12/12 11:56:37;;;;;;;53.05;33.25;;;230.40;2252.80;;;;;;4994810;28;20030;-78
2020/12/12 11:59:02;;;;;;;52.30;33.47;;;230.40;2252.80;;;;;;4993518;28;20038;-78
2020/12/12 12:01:29;;;;;;;52.85;31.40;;;230.40;2252.80;;;;;;4994339;28;20022;-77
2020/12/12 12:03:56;;;;;;;53.58;32.70;;;230.40;2252.80;;;;;;4991693;28;20138;-77
2020/12/12 12:06:24;;;;;;;52.42;30.55;;;230.40;2252.80;;;;;;4994416;28;20105;-78
2020/12/12 12:09:14;;;;;;;47.20;30.35;;;230.50;2252.80;;;;;;4994035;28;20058;-78
2020/12/12 12:11:40;;;;;;;69.32;40.00;;;230.50;2252.80;;;;;;4976085;28;20141;-79